createdAt,value
2022-08-24T00:01:12.449Z,3.10
2022-08-24T00:03:43.906Z,2.70
2022-08-24T00:06:19.630Z,3.40
2022-08-24T00:08:55.512Z,3.50
2022-08-24T00:11:26.402Z,3.40
2022-08-24T00:13:59.005Z,3.20
2022-08-24T00:16:30.399Z,3.90
2022-08-24T00:18:59.830Z,4.00
2022-08-24T00:21:31.816Z,4.10
2022-08-24T00:24:05.935Z,3.90
2022-08-24T00:26:39.713Z,4.00
2022-08-24T00:29:14.678Z,3.80
2022-08-24T00:31:45.459Z,3.70
2022-08-24T00:34:19.707Z,3.80
2022-08-24T00:36:54.116Z,4.00
2022-08-24T00:39:27.933Z,3.90
2022-08-24T00:41:59.505Z,4.10
2022-08-24T00:44:28.763Z,4.20
2022-08-24T00:47:16.550Z,3.90
2022-08-24T00:49:55.972Z,3.50
2022-08-24T00:52:42.419Z,4.00
2022-08-24T00:55:27.263Z,4.30
2022-08-24T00:58:03.027Z,4.10
2022-08-24T01:00:40.776Z,4.00
2022-08-24T01:03:15.772Z,3.90
2022-08-24T01:05:47.741Z,4.00
2022-08-24T01:08:18.514Z,4.20
2022-08-24T01:10:53.666Z,3.90
2022-08-24T01:13:26.218Z,4.30
2022-08-24T01:16:00.361Z,4.20
2022-08-24T01:18:51.014Z,4.10
2022-08-24T01:21:21.479Z,4.00
2022-08-24T01:23:55.410Z,3.90
2022-08-24T01:26:34.846Z,3.70
2022-08-24T01:29:10.810Z,3.90
2022-08-24T01:31:41.064Z,4.40
2022-08-24T01:34:11.785Z,4.60
2022-08-24T01:36:48.702Z,5.20
2022-08-24T01:39:41.239Z,5.30
2022-08-24T01:42:12.752Z,4.90
2022-08-24T01:44:45.938Z,5.90
2022-08-24T01:47:17.781Z,4.80
2022-08-24T01:49:51.097Z,5.00
2022-08-24T01:52:29.738Z,4.80
2022-08-24T01:55:10.238Z,4.80
2022-08-24T01:57:43.334Z,5.00
2022-08-24T02:00:19.346Z,5.80
2022-08-24T02:02:48.659Z,5.50
2022-08-24T02:05:18.769Z,5.60
2022-08-24T02:07:49.430Z,5.90
2022-08-24T02:10:20.119Z,6.00
2022-08-24T02:13:01.426Z,5.70
2022-08-24T02:15:40.568Z,5.40
2022-08-24T02:18:15.483Z,6.40
2022-08-24T02:20:48.288Z,5.80
2022-08-24T02:23:18.258Z,6.00
2022-08-24T02:25:49.717Z,5.10
2022-08-24T02:28:20.689Z,5.30
2022-08-24T02:30:53.233Z,5.40
2022-08-24T02:33:24.822Z,4.70
2022-08-24T02:35:58.506Z,6.50
2022-08-24T02:38:28.111Z,6.70
2022-08-24T02:40:58.344Z,6.80
2022-08-24T02:43:28.896Z,6.00
2022-08-24T02:46:01.109Z,5.70
2022-08-24T02:48:32.490Z,6.20
2022-08-24T02:51:05.388Z,6.10
2022-08-24T02:53:35.604Z,6.10
2022-08-24T02:56:05.025Z,5.50
2022-08-24T02:58:39.304Z,4.40
2022-08-24T03:01:17.613Z,3.60
2022-08-24T03:03:48.451Z,3.60
2022-08-24T03:06:22.092Z,3.40
2022-08-24T03:08:56.332Z,3.20
2022-08-24T03:11:28.446Z,2.80
2022-08-24T03:14:00.296Z,3.00
2022-08-24T03:16:32.129Z,3.50
2022-08-24T03:19:03.791Z,4.80
2022-08-24T03:21:38.677Z,4.00
2022-08-24T03:24:08.414Z,4.30
2022-08-24T03:26:39.658Z,5.40
2022-08-24T03:29:18.261Z,5.30
2022-08-24T03:31:58.459Z,8.00
2022-08-24T03:34:32.787Z,9.00
2022-08-24T03:37:06.058Z,9.20
2022-08-24T03:42:06.815Z,7.10
2022-08-24T03:44:38.496Z,5.70
2022-08-24T03:47:16.904Z,5.70
2022-08-24T03:49:47.959Z,6.10
2022-08-24T03:52:20.635Z,5.40
2022-08-24T03:55:00.727Z,5.30
2022-08-24T03:57:32.781Z,4.50
2022-08-24T04:00:08.214Z,5.30
2022-08-24T04:02:45.014Z,4.60
2022-08-24T04:05:18.111Z,6.80
2022-08-24T04:07:50.513Z,5.40
2022-08-24T04:10:20.346Z,5.00
2022-08-24T04:12:51.539Z,4.00
2022-08-24T04:17:55.765Z,4.70
2022-08-24T04:20:27.303Z,5.20
2022-08-24T04:23:03.416Z,5.30
2022-08-24T04:25:48.284Z,4.10
2022-08-24T04:28:24.197Z,3.20
2022-08-24T04:30:56.081Z,3.40
2022-08-24T04:33:39.182Z,3.50
2022-08-24T04:36:14.730Z,3.70
2022-08-24T04:38:47.532Z,3.40
2022-08-24T04:41:38.404Z,3.00
2022-08-24T04:44:08.629Z,3.50
2022-08-24T04:46:38.267Z,3.20
2022-08-24T04:49:10.300Z,3.10
2022-08-24T04:51:39.625Z,3.90
2022-08-24T04:54:10.668Z,3.40
2022-08-24T04:56:40.538Z,3.60
2022-08-24T04:59:10.027Z,3.80
2022-08-24T05:01:45.267Z,3.50
2022-08-24T05:04:15.066Z,3.20
2022-08-24T05:06:44.622Z,3.30
2022-08-24T05:09:17.017Z,3.20
2022-08-24T05:11:49.882Z,3.20
2022-08-24T05:14:28.568Z,3.30
2022-08-24T05:16:58.430Z,3.10
2022-08-24T05:19:30.084Z,2.60
2022-08-24T05:21:59.866Z,3.00
2022-08-24T05:24:29.469Z,2.90
2022-08-24T05:27:00.962Z,3.00
2022-08-24T05:29:33.935Z,3.50
2022-08-24T05:32:04.145Z,3.50
2022-08-24T05:34:34.706Z,3.30
2022-08-24T05:37:05.019Z,3.60
2022-08-24T05:39:41.375Z,3.80
2022-08-24T05:42:11.310Z,3.90
2022-08-24T05:44:46.564Z,3.90
2022-08-24T05:47:16.693Z,3.90
2022-08-24T05:49:46.160Z,3.60
2022-08-24T05:52:14.685Z,3.80
2022-08-24T05:54:43.236Z,3.50
2022-08-24T05:57:17.508Z,3.70
2022-08-24T05:59:56.086Z,3.80
2022-08-24T06:02:25.291Z,3.60
2022-08-24T06:04:54.155Z,3.90
2022-08-24T06:07:23.261Z,3.90
2022-08-24T06:09:56.350Z,4.30
2022-08-24T06:12:26.363Z,4.50
2022-08-24T06:14:56.060Z,3.80
2022-08-24T06:17:26.276Z,3.70
2022-08-24T06:19:55.009Z,4.10
2022-08-24T06:22:24.098Z,4.20
2022-08-24T06:25:11.572Z,4.00
2022-08-24T06:27:41.885Z,3.80
2022-08-24T06:30:10.763Z,3.50
2022-08-24T06:33:03.399Z,4.00
2022-08-24T06:35:47.117Z,4.60
2022-08-24T06:38:17.439Z,4.00
2022-08-24T06:40:48.602Z,5.00
2022-08-24T06:43:17.795Z,4.40
2022-08-24T06:45:55.872Z,4.50
2022-08-24T06:48:32.416Z,4.40
2022-08-24T06:51:03.810Z,4.00
2022-08-24T06:53:33.071Z,5.60
2022-08-24T06:56:02.104Z,6.00
2022-08-24T06:58:42.367Z,4.20
2022-08-24T07:01:21.389Z,3.20
2022-08-24T07:03:50.415Z,2.90
2022-08-24T07:06:24.332Z,2.80
2022-08-24T07:08:56.939Z,3.00
2022-08-24T07:11:28.585Z,3.40
2022-08-24T07:13:59.186Z,4.00
2022-08-24T07:16:28.139Z,3.40
2022-08-24T07:19:06.133Z,3.20
2022-08-24T07:21:37.184Z,3.20
2022-08-24T07:24:11.387Z,2.70
2022-08-24T07:26:41.320Z,3.60
2022-08-24T07:29:44.066Z,2.70
2022-08-24T07:32:08.027Z,3.00
2022-08-24T07:34:40.035Z,2.70
2022-08-24T07:37:13.414Z,2.60
2022-08-24T07:39:46.530Z,3.00
2022-08-24T07:42:22.990Z,2.90
2022-08-24T07:44:56.096Z,3.00
2022-08-24T07:47:38.118Z,2.90
2022-08-24T07:50:17.191Z,3.30
2022-08-24T07:52:47.079Z,3.30
2022-08-24T07:55:16.172Z,3.10
2022-08-24T07:57:49.542Z,3.50
2022-08-24T08:00:20.500Z,3.80
2022-08-24T08:02:52.638Z,3.30
2022-08-24T08:05:25.250Z,3.10
2022-08-24T08:07:57.109Z,3.20
2022-08-24T08:10:25.929Z,3.50
2022-08-24T08:12:56.434Z,3.00
2022-08-24T08:15:27.164Z,3.10
2022-08-24T08:18:03.403Z,2.90
2022-08-24T08:20:34.699Z,2.90
2022-08-24T08:23:22.863Z,2.80
2022-08-24T08:25:55.025Z,2.90
2022-08-24T08:31:07.605Z,2.60
2022-08-24T08:33:40.416Z,3.10
2022-08-24T08:36:15.443Z,2.60
2022-08-24T08:38:48.828Z,3.70
2022-08-24T08:41:47.692Z,2.80
2022-08-24T08:44:33.822Z,2.70
2022-08-24T08:47:23.166Z,2.70
2022-08-24T08:50:05.549Z,3.20
2022-08-24T08:53:08.832Z,10.20
2022-08-24T08:56:34.278Z,6.80
2022-08-24T08:59:29.609Z,4.10
2022-08-24T09:02:17.683Z,3.30
2022-08-24T09:05:25.855Z,3.60
2022-08-24T09:08:36.110Z,3.50
2022-08-24T09:11:25.955Z,4.20
2022-08-24T09:14:15.486Z,6.30
2022-08-24T09:17:13.068Z,4.50
2022-08-24T09:20:20.794Z,3.70
2022-08-24T09:23:13.906Z,4.50
2022-08-24T09:25:58.797Z,4.20
2022-08-24T09:28:53.794Z,4.00
2022-08-24T09:31:42.716Z,4.20
2022-08-24T09:34:53.235Z,4.40
2022-08-24T09:37:43.516Z,6.30
2022-08-24T09:40:36.648Z,6.30
2022-08-24T09:43:31.231Z,4.90
2022-08-24T09:46:17.104Z,4.50
2022-08-24T09:49:22.942Z,4.60
2022-08-24T09:52:19.065Z,4.60
2022-08-24T09:55:28.744Z,4.30
2022-08-24T09:58:17.843Z,4.20
2022-08-24T10:01:09.075Z,4.20
2022-08-24T10:04:11.716Z,3.60
2022-08-24T10:06:48.370Z,4.10
2022-08-24T10:09:48.335Z,4.10
2022-08-24T10:12:21.158Z,4.10
2022-08-24T10:15:02.691Z,4.00
2022-08-24T10:17:53.784Z,3.90
2022-08-24T10:20:52.822Z,4.30
2022-08-24T10:24:15.737Z,3.80
2022-08-24T10:27:32.624Z,4.00
2022-08-24T10:30:25.952Z,3.80
2022-08-24T10:33:29.186Z,3.90
2022-08-24T10:36:20.965Z,3.30
2022-08-24T10:39:36.224Z,3.40
2022-08-24T10:43:04.435Z,4.10
2022-08-24T10:46:02.966Z,3.80
2022-08-24T10:48:33.462Z,3.40
2022-08-24T10:51:22.138Z,3.40
2022-08-24T10:53:54.030Z,3.60
2022-08-24T10:57:11.557Z,3.50
2022-08-24T11:00:22.650Z,3.20
2022-08-24T11:03:11.198Z,3.10
2022-08-24T11:05:50.536Z,4.00
2022-08-24T11:08:29.538Z,4.20
2022-08-24T11:11:05.188Z,3.50
2022-08-24T11:14:09.447Z,3.20
2022-08-24T11:16:42.872Z,3.70
2022-08-24T11:19:33.081Z,3.60
2022-08-24T11:22:53.186Z,3.40
2022-08-24T11:25:28.891Z,3.40
2022-08-24T11:28:07.210Z,3.30
2022-08-24T11:30:43.947Z,3.50
2022-08-24T11:33:33.547Z,3.40
2022-08-24T11:36:15.085Z,4.00
2022-08-24T11:39:24.321Z,3.70
2022-08-24T11:42:29.869Z,3.90
2022-08-24T11:45:18.987Z,4.20
2022-08-24T11:48:07.812Z,3.70
2022-08-24T11:51:00.210Z,3.70
2022-08-24T11:56:39.442Z,4.30
2022-08-24T11:59:34.352Z,4.10
2022-08-24T12:02:17.392Z,4.20
2022-08-24T12:04:57.765Z,4.40
2022-08-24T12:07:52.989Z,4.10
2022-08-24T12:13:39.303Z,4.10
2022-08-24T12:16:15.208Z,4.10
2022-08-24T12:19:10.630Z,4.00
2022-08-24T12:21:45.653Z,4.00
2022-08-24T12:24:31.748Z,4.10
2022-08-24T12:27:40.044Z,4.10
2022-08-24T12:30:16.795Z,4.10
2022-08-24T12:32:54.024Z,4.30
2022-08-24T12:35:41.161Z,4.00
2022-08-24T12:38:35.200Z,4.30
2022-08-24T12:41:21.185Z,4.60
2022-08-24T12:43:59.945Z,4.20
2022-08-24T12:46:31.949Z,4.00
2022-08-24T12:49:09.375Z,3.70
2022-08-24T12:52:11.002Z,4.00
2022-08-24T12:54:46.748Z,3.90
2022-08-24T12:57:35.052Z,4.30
2022-08-24T13:00:27.861Z,3.80
2022-08-24T13:03:05.250Z,4.10
2022-08-24T13:05:51.709Z,4.20
2022-08-24T13:08:37.407Z,3.90
2022-08-24T13:11:32.797Z,4.40
2022-08-24T13:17:00.797Z,3.90
2022-08-24T13:19:30.843Z,3.50
2022-08-24T13:22:10.034Z,3.60
2022-08-24T13:24:46.218Z,4.20
2022-08-24T13:27:19.650Z,3.80
2022-08-24T13:30:06.487Z,3.70
2022-08-24T13:32:48.346Z,3.90
2022-08-24T13:35:48.661Z,3.90
2022-08-24T13:38:52.108Z,3.70
2022-08-24T13:41:34.728Z,3.70
2022-08-24T13:44:33.537Z,3.50
2022-08-24T13:47:40.171Z,3.60
2022-08-24T13:50:28.436Z,3.80
2022-08-24T13:53:41.589Z,3.50
2022-08-24T13:56:38.635Z,3.50
2022-08-24T13:59:49.922Z,4.30
2022-08-24T14:05:42.687Z,3.90
2022-08-24T14:08:40.568Z,3.60
2022-08-24T14:11:35.404Z,3.40
2022-08-24T14:14:15.130Z,4.10
2022-08-24T14:17:24.757Z,3.70
2022-08-24T14:20:23.551Z,3.60
2022-08-24T14:23:03.937Z,3.50
2022-08-24T14:25:36.026Z,3.60
2022-08-24T14:28:24.475Z,3.90
2022-08-24T14:31:32.581Z,4.00
2022-08-24T14:34:32.781Z,3.70
2022-08-24T14:37:13.783Z,4.10
2022-08-24T14:40:12.076Z,4.10
2022-08-24T14:42:56.269Z,4.00
2022-08-24T14:45:50.243Z,4.00
2022-08-24T14:48:48.778Z,3.50
2022-08-24T14:51:54.979Z,3.60
2022-08-24T14:54:49.691Z,3.50
2022-08-24T14:57:45.878Z,3.50
2022-08-24T15:00:34.477Z,3.30
2022-08-24T15:03:24.426Z,3.60
2022-08-24T15:06:26.959Z,3.20
2022-08-24T15:09:20.006Z,3.30
2022-08-24T15:11:53.430Z,3.30
2022-08-24T15:14:47.243Z,3.30
2022-08-24T15:17:29.782Z,3.50
2022-08-24T15:20:14.408Z,3.70
2022-08-24T15:23:03.980Z,3.60
2022-08-24T15:25:43.850Z,3.10
2022-08-24T15:28:22.885Z,3.00
2022-08-24T15:31:04.012Z,3.30
2022-08-24T15:33:35.726Z,3.30
2022-08-24T15:36:13.828Z,3.90
2022-08-24T15:38:48.183Z,3.50
2022-08-24T15:41:31.847Z,3.60
2022-08-24T15:44:20.490Z,3.50
2022-08-24T15:47:00.579Z,3.50
2022-08-24T15:49:36.762Z,3.80
2022-08-24T15:52:26.977Z,3.40
2022-08-24T15:55:05.506Z,3.40
2022-08-24T15:57:41.683Z,3.30
2022-08-24T16:00:40.517Z,3.40
2022-08-24T16:03:46.061Z,3.30
2022-08-24T16:06:26.068Z,3.40
2022-08-24T16:09:07.561Z,3.80
2022-08-24T16:11:39.337Z,3.30
2022-08-24T16:14:37.658Z,3.40
2022-08-24T16:17:32.131Z,3.30
2022-08-24T16:20:06.507Z,3.60
2022-08-24T16:22:41.490Z,4.70
2022-08-24T16:25:18.793Z,4.90
2022-08-24T16:28:11.232Z,5.50
2022-08-24T16:30:42.951Z,5.20
2022-08-24T16:33:34.678Z,5.70
2022-08-24T16:36:13.575Z,7.50
2022-08-24T16:38:50.135Z,7.60
2022-08-24T16:41:24.986Z,7.40
2022-08-24T16:43:54.513Z,7.90
2022-08-24T16:46:25.784Z,7.70
2022-08-24T16:48:55.505Z,8.20
2022-08-24T16:51:28.824Z,7.10
2022-08-24T16:53:58.206Z,7.30
2022-08-24T16:56:33.225Z,7.70
2022-08-24T16:59:04.076Z,7.10
2022-08-24T17:01:32.917Z,6.90
2022-08-24T17:04:03.624Z,6.10
2022-08-24T17:06:32.899Z,6.50
2022-08-24T17:09:03.135Z,5.80
2022-08-24T17:11:32.298Z,5.40
2022-08-24T17:14:03.685Z,5.10
2022-08-24T17:16:34.407Z,5.50
2022-08-24T17:19:09.563Z,5.80
2022-08-24T17:21:40.034Z,6.20
2022-08-24T17:24:10.889Z,6.00
2022-08-24T17:26:48.271Z,5.50
2022-08-24T17:29:20.881Z,5.40
2022-08-24T17:31:51.726Z,5.10
2022-08-24T17:34:22.823Z,5.30
2022-08-24T17:36:56.858Z,4.70
2022-08-24T17:39:26.392Z,5.20
2022-08-24T17:42:00.886Z,6.60
2022-08-24T17:44:37.284Z,7.30
2022-08-24T17:47:07.824Z,7.00
2022-08-24T17:49:39.693Z,6.70
2022-08-24T17:52:08.500Z,5.40
2022-08-24T17:54:39.070Z,5.50
2022-08-24T17:57:11.118Z,16.00
2022-08-24T17:59:42.171Z,22.50
2022-08-24T18:02:13.086Z,28.00
2022-08-24T18:04:46.433Z,18.00
2022-08-24T18:07:36.191Z,9.90
2022-08-24T18:10:15.510Z,8.40
2022-08-24T18:12:46.266Z,7.60
2022-08-24T18:15:15.859Z,6.80
2022-08-24T18:17:48.601Z,6.60
2022-08-24T18:20:25.728Z,7.00
2022-08-24T18:22:55.938Z,7.20
2022-08-24T18:25:27.870Z,6.40
2022-08-24T18:27:59.868Z,6.70
2022-08-24T18:30:32.360Z,6.70
2022-08-24T18:33:02.963Z,6.30
2022-08-24T18:35:34.738Z,6.30
2022-08-24T18:38:03.677Z,6.80
2022-08-24T18:40:33.355Z,6.10
2022-08-24T18:43:06.481Z,6.90
2022-08-24T18:45:39.106Z,6.20
2022-08-24T18:48:09.654Z,8.30
2022-08-24T18:50:42.023Z,9.10
2022-08-24T18:53:13.559Z,7.80
2022-08-24T18:55:46.620Z,6.30
2022-08-24T18:58:16.486Z,7.00
2022-08-24T19:00:46.797Z,6.90
2022-08-24T19:03:19.450Z,6.60
2022-08-24T19:05:50.293Z,7.40
2022-08-24T19:08:19.228Z,7.10
2022-08-24T19:10:48.861Z,9.50
2022-08-24T19:13:18.933Z,7.00
2022-08-24T19:15:49.885Z,6.70
2022-08-24T19:18:21.654Z,8.30
2022-08-24T19:20:53.410Z,6.40
2022-08-24T19:23:48.916Z,7.90
2022-08-24T19:26:19.645Z,6.50
2022-08-24T19:28:48.983Z,6.30
2022-08-24T19:31:25.242Z,6.50
2022-08-24T19:34:00.096Z,7.80
2022-08-24T19:36:32.550Z,6.10
2022-08-24T19:39:02.873Z,6.40
2022-08-24T19:41:36.761Z,5.80
2022-08-24T19:44:27.285Z,5.60
2022-08-24T19:46:59.648Z,6.20
2022-08-24T19:49:28.818Z,7.30
2022-08-24T19:51:57.876Z,6.80
2022-08-24T19:54:34.822Z,6.50
2022-08-24T19:57:26.995Z,7.30
2022-08-24T20:00:24.950Z,8.00
2022-08-24T20:02:57.985Z,7.40
2022-08-24T20:05:28.915Z,7.80
2022-08-24T20:07:59.958Z,7.30
2022-08-24T20:10:28.709Z,6.70
2022-08-24T20:12:58.451Z,6.90
2022-08-24T20:15:29.394Z,5.80
2022-08-24T20:18:02.758Z,5.00
2022-08-24T20:20:33.933Z,5.80
2022-08-24T20:23:06.645Z,5.60
2022-08-24T20:25:37.431Z,5.70
2022-08-24T20:28:28.321Z,5.80
2022-08-24T20:30:57.581Z,5.30
2022-08-24T20:33:28.283Z,5.60
2022-08-24T20:35:57.128Z,5.30
2022-08-24T20:38:32.014Z,5.40
2022-08-24T20:41:02.195Z,5.30
2022-08-24T20:43:32.053Z,5.10
2022-08-24T20:46:02.005Z,4.90
2022-08-24T20:48:34.131Z,5.20
2022-08-24T20:51:03.287Z,4.60
2022-08-24T20:53:32.330Z,5.40
2022-08-24T20:56:07.928Z,5.30
2022-08-24T20:58:40.298Z,4.70
2022-08-24T21:01:10.259Z,4.80
2022-08-24T21:03:40.699Z,4.50
2022-08-24T21:06:15.044Z,4.70
2022-08-24T21:08:46.591Z,4.60
2022-08-24T21:11:16.970Z,4.60
2022-08-24T21:13:46.953Z,4.80
2022-08-24T21:16:16.793Z,4.40
2022-08-24T21:18:49.846Z,5.00
2022-08-24T21:21:18.881Z,5.20
2022-08-24T21:23:48.947Z,4.30
2022-08-24T21:26:23.837Z,4.80
2022-08-24T21:28:53.052Z,5.30
2022-08-24T21:31:23.983Z,4.80
2022-08-24T21:34:13.068Z,5.10
2022-08-24T21:36:43.587Z,4.90
2022-08-24T21:39:12.702Z,5.10
2022-08-24T21:41:44.071Z,5.50
2022-08-24T21:44:14.981Z,5.90
2022-08-24T21:46:46.154Z,5.30
2022-08-24T21:49:17.041Z,4.60
2022-08-24T21:51:46.478Z,4.90
2022-08-24T21:54:15.666Z,4.90
2022-08-24T21:56:44.945Z,5.70
2022-08-24T21:59:14.355Z,4.70
2022-08-24T22:01:44.134Z,4.80
2022-08-24T22:04:13.594Z,4.90
2022-08-24T22:06:43.596Z,5.20
2022-08-24T22:09:12.262Z,4.80
2022-08-24T22:11:42.022Z,4.50
2022-08-24T22:14:11.113Z,4.40
2022-08-24T22:16:40.486Z,5.10
2022-08-24T22:19:10.019Z,5.10
2022-08-24T22:21:47.562Z,4.90
2022-08-24T22:24:18.278Z,5.00
2022-08-24T22:26:47.897Z,4.30
2022-08-24T22:29:19.120Z,4.70
2022-08-24T22:31:49.635Z,5.00
2022-08-24T22:34:21.833Z,5.00
2022-08-24T22:36:50.891Z,5.10
2022-08-24T22:39:20.737Z,4.40
2022-08-24T22:41:51.020Z,4.70
2022-08-24T22:44:20.323Z,5.00
2022-08-24T22:46:58.854Z,4.70
2022-08-24T22:49:36.043Z,4.70
2022-08-24T22:52:07.392Z,4.50
2022-08-24T22:54:36.443Z,4.80
2022-08-24T22:57:06.852Z,5.10
2022-08-24T22:59:41.791Z,4.70
2022-08-24T23:02:15.906Z,4.80
2022-08-24T23:04:50.602Z,4.80
2022-08-24T23:07:21.407Z,4.60
2022-08-24T23:09:50.914Z,4.50
2022-08-24T23:12:23.257Z,4.90
2022-08-24T23:14:53.514Z,4.60
2022-08-24T23:17:23.893Z,4.80
2022-08-24T23:20:04.784Z,5.10
2022-08-24T23:22:40.059Z,5.60
2022-08-24T23:25:13.544Z,5.50
2022-08-24T23:27:44.494Z,5.10
2022-08-24T23:30:16.060Z,4.80
2022-08-24T23:32:44.981Z,5.10
2022-08-24T23:35:15.951Z,4.70
2022-08-24T23:37:45.189Z,5.10
2022-08-24T23:40:14.420Z,4.80
2022-08-24T23:42:43.168Z,4.70
2022-08-24T23:45:12.542Z,5.40
2022-08-24T23:47:44.201Z,4.90
2022-08-24T23:50:13.080Z,5.30
2022-08-24T23:52:44.254Z,4.60
2022-08-24T23:55:21.420Z,4.30
2022-08-24T23:57:54.712Z,4.20
